Goldthwaite, Texas
Current Conditions -  °F | °C
As of 2:35 AM on Sunday 21 Dec 2014 (Local Time) from KMNZ Reporting Station
Overcast Overcast  
Wind Chill: 43°   Ceiling: 1500
Heat Index: 47°   Visibility: 7mi
Dew Point: 47°   Wind: 10mph
Humidity: 99%   Direction: 140°SE
Pressure: 30.14"   Gusts: 17mph
Location:  31.45°N, 98.57°W
Report Text: KMNZ 210835Z AUTO 14009G15KT 7SM OVC015 09/08 A3014 RMK AO2 T00850084
Loading
Personal Weather Stations






























Interactive Weather Map New forecast layout! Learn more

10-Day Weather Forecast

Advertisements
Track Severe Weather on mobile